Flight Track Log - Related Links

Times and Time Zones

All times are in EDT time to prevent confusion due to time zone crossing. See the DAL8965 flight status page for this flight to view local times or setup timezone preferences in your user account.

Time Position Orientation Groundspeed Altitude Reporting Facility
EDT Latitude Longitude Course Direction KTS MPH feet Rate Location/Type
Sat 08:50:18 AM 35.6285 -86.4980 189° South 404 465 17,400  Level FlightAware (KMDQ)
Sat 08:51:00 AM 35.5622 -86.5097 187° South 416 479 19,600 3,150 Climbing FlightAware (KMDQ)
Sat 08:51:38 AM 35.4743 -86.5132 169° South 429 494 21,600 3,000 Climbing FlightAware (KMDQ)
Sat 08:51:58 AM 35.4431 -86.5025 156° South 439 505 22,500 1,857 Climbing FlightAware (KMDQ)
Sat 08:52:20 AM 35.3968 -86.4719 144° Southeast 448 516 22,900 714 Climbing FlightAware (KMDQ)
Sat 08:52:40 AM 35.3660 -86.4384 133° Southeast 457 526 23,000 1,345 Climbing FlightAware (KMDQ)
Sat 08:53:18 AM 35.3175 -86.3586 119° Southeast 458 527 24,200 2,025 Climbing FlightAware (KMDQ)
Sat 08:54:00 AM 35.2738 -86.2621 119° Southeast 470 541 25,700 2,000 Climbing FlightAware (KMDQ)
Sat 08:54:39 AM 35.2314 -86.1716 122° Southeast 479 551 26,900 780 Climbing FlightAware (KMDQ)
Sat 08:55:40 AM 35.1374 -86.0588 146° Southeast 467 537 27,000 59 Climbing FlightAware (KMDQ)
Sat 08:56:20 AM 35.0641 -86.0001 147° Southeast 460 529 27,000  Level FlightAware (KMDQ)
Sat 08:57:00 AM 34.9940 -85.9442 147° Southeast 458 527 27,000  Level FlightAware (KMDQ)
Sat 08:57:40 AM 34.9225 -85.8871 147° Southeast 459 528 27,000  Level FlightAware (KMDQ)
Sat 08:58:16 AM 34.8604 -85.8376 147° Southeast 459 528 27,000  Level FlightAware (KMDQ)
Sat 08:58:47 AM 34.8035 -85.7921 147° Southeast 456 525 27,000  Level FlightAware (KMDQ)
Sat 08:59:27 AM 34.7550 -85.7428 147° Southeast 464 534 27,000  Level Atlanta Center
Sat 09:00:27 AM 34.6478 -85.6597 147° Southeast 464 534 27,000  Level Atlanta Center
Sat 09:01:27 AM 34.5422 -85.5769 147° Southeast 464 534 27,000 -450 Level Atlanta Center
Sat 09:02:27 AM 34.4347 -85.4944 148° Southeast 458 527 26,100 -1,450 Descending Atlanta Center
Sat 09:03:27 AM 34.3314 -85.4097 146° Southeast 452 520 24,100 -2,350 Descending Atlanta Center
Sat 09:04:27 AM 34.2236 -85.3275 148° Southeast 452 520 21,400 -3,100 Descending Atlanta Center
Sat 09:05:27 AM 34.1222 -85.2458 146° Southeast 452 520 17,900 -3,300 Descending Atlanta Center
Sat 09:06:27 AM 34.0208 -85.1642 146° Southeast 447 514 14,800 -2,450 Descending Atlanta Center
Sat 09:07:27 AM 33.9422 -85.0731 136° Southeast 428 493 13,000 -1,400 Descending Atlanta Center
Sat 09:08:27 AM 33.8931 -84.9522 116° Southeast 397 457 12,000 -577 Descending Atlanta Center
Sat 09:09:11 AM 33.8500 -84.8667 121° Southeast 357 411 12,000  Level Atlanta TRACON
Sat 09:10:05 AM 33.7833 -84.8000 140° Southeast 309 356 12,000  Level Atlanta TRACON
Sat 09:11:05 AM 33.7333 -84.7167 126° Southeast 322 371 12,000  Level Atlanta TRACON
Sat 09:12:05 AM 33.7333 -84.6000 90° East 324 373 12,000 -350 Level Atlanta TRACON
Sat 09:13:05 AM 33.7333 -84.5000 90° East 328 377 11,300 -1,050 Descending Atlanta TRACON
Sat 09:14:05 AM 33.7333 -84.4000 90° East 317 365 9,900 -1,450 Descending Atlanta TRACON
Sat 09:15:05 AM 33.7333 -84.3000 90° East 267 307 8,400 -1,600 Descending Atlanta TRACON
Sat 09:16:05 AM 33.7333 -84.2167 90° East 258 297 6,700 -1,800 Descending Atlanta TRACON
Sat 09:17:05 AM 33.6667 -84.2167 180° South 220 253 4,800 -1,750 Descending Atlanta TRACON
Sat 09:18:05 AM 33.6500 -84.2667 248° West 181 208 3,200 -1,250 Descending Atlanta TRACON
Sat 09:19:05 AM 33.6500 -84.3167 270° West 155 178 2,300 -800 Descending Atlanta TRACON
Sat 09:20:05 AM 33.6500 -84.3667 270° West 126 145 1,600 -700 Descending Atlanta TRACON
Sat 09:22:00 AM 33.6333 -84.4167 North  Level FlightAware
Sat 09:29:00 AM 33.6367 -84.4279 North  Level Estimated

Login

Don't have an account? Register now (free) for customized features, flight alerts, and more!